Terminal Aerodrome Forecast
Issued by NWS Blacksburg, VA

Home | Current Version | Previous Version | Text Only | Print | Product List | Glossary On
Versions: 1 2 3 4 5 6 7 8 9 10 11 12 13 14 15 16 17 18
000
FTUS41 KRNK 232328
TAFLYH
TAF
KLYH 232328Z 2400/2424 03007KT 3SM -RA BR OVC006
      TEMPO 2400/2404 4SM -RA BR OVC004
     FM240600 VRB03KT 3SM -SHRA BR OVC003
     FM240900 VRB03KT 2SM BR VCSH OVC001
     FM241600 10004KT 2SM -SHRA BR OVC003=

USA.gov is the U.S. government's official web portal to all federal, state and local government web resources and services.